Time;durP1;ratioP1;P1;durP2;ratioP2;P2;SDS_P1;SDS_P2;PMS_P1;PMS_P2;Temp;Humidity;BMP_temperature;BMP_pressure;BME280_temperature;BME280_humidity;BME280_pressure;Samples;Min_cycle;Max_cycle;Signal;HPM_P1;HPM_P2
2022/02/10 00:21:28;;;;;;;76.50;23.83;;;;;;;1.33;85.58;94439.94;5111776;28;20035;-42
2022/02/10 00:34:46;;;;;;;57.72;21.42;;;;;;;1.58;83.00;94437.94;5111173;28;20058;-41
2022/02/10 00:37:13;;;;;;;35.30;19.85;;;;;;;1.58;83.51;94435.22;5103809;28;20027;-42
2022/02/10 00:42:11;;;;;;;131.90;18.63;;;;;;;1.74;82.78;94438.22;5111244;28;20032;-42
2022/02/10 00:44:36;;;;;;;138.82;18.17;;;;;;;1.51;82.74;94437.09;5111161;28;20028;-41
2022/02/10 00:47:02;;;;;;;109.88;17.83;;;;;;;1.32;84.17;94449.31;5108022;28;20423;-41
2022/02/10 00:49:28;;;;;;;130.38;19.02;;;;;;;1.42;84.56;94442.59;5110861;28;20054;-41
2022/02/10 00:51:54;;;;;;;101.32;19.33;;;;;;;1.31;84.46;94442.38;5102417;28;20108;-41
2022/02/10 00:54:23;;;;;;;65.72;18.45;;;;;;;1.26;84.35;94440.28;5111086;28;20652;-41
2022/02/10 00:56:49;;;;;;;92.38;18.40;;;;;;;0.95;85.76;94433.72;5090456;28;20110;-42
2022/02/10 00:59:36;;;;;;;88.82;20.52;;;;;;;1.02;85.94;94436.09;5094602;28;20102;-42
2022/02/10 01:06:57;;;;;;;67.38;18.02;;;;;;;1.09;85.50;94433.75;5110882;28;20405;-41
2022/02/10 01:10:36;;;;;;;179.68;21.83;;;;;;;1.18;84.60;94430.97;5107699;28;20028;-40
2022/02/10 01:31:51;;;;;;;37.78;12.18;;;;;;;0.97;83.81;94420.41;5090238;28;20027;-40
2022/02/10 01:34:16;;;;;;;26.80;13.35;;;;;;;1.02;84.18;94409.63;5090385;28;20027;-40
2022/02/10 01:36:41;;;;;;;26.00;10.95;;;;;;;1.01;83.43;94410.09;5098988;28;20495;-42
2022/02/10 01:39:07;;;;;;;30.70;11.55;;;;;;;1.11;83.09;94417.72;5110054;28;20460;-41
2022/02/10 01:42:46;;;;;;;22.02;11.70;;;;;;;1.08;83.29;94424.13;5110493;28;20419;-41
2022/02/10 01:58:25;;;;;;;20.75;11.30;;;;;;;0.96;80.61;94422.38;5113436;28;20096;-41
2022/02/10 02:03:34;;;;;;;26.13;12.32;;;;;;;1.06;80.45;94409.47;5113954;28;20436;-41
2022/02/10 02:06:09;;;;;;;25.52;14.02;;;;;;;0.78;79.87;94392.56;5113952;28;20024;-40
2022/02/10 02:08:37;;;;;;;39.45;15.95;;;;;;;0.90;80.47;94407.16;5112864;28;20036;-41
2022/02/10 02:11:03;;;;;;;79.22;16.67;;;;;;;0.91;80.55;94400.50;5112549;28;20027;-41
2022/02/10 02:13:29;;;;;;;54.53;15.43;;;;;;;0.74;81.02;94405.59;5096018;27;20032;-40
2022/02/10 02:15:55;;;;;;;97.18;16.08;;;;;;;0.75;81.62;94385.34;5093619;28;20035;-41
2022/02/10 02:18:21;;;;;;;66.35;15.95;;;;;;;0.82;81.76;94401.31;5093241;28;20504;-39
2022/02/10 02:20:48;;;;;;;50.67;16.45;;;;;;;0.77;82.48;94401.94;5093616;28;20028;-39
2022/02/10 02:23:15;;;;;;;40.05;14.95;;;;;;;0.78;82.49;94395.28;5093386;28;20100;-40
2022/02/10 02:25:40;;;;;;;76.28;15.65;;;;;;;0.85;82.19;94405.81;5093193;28;20023;-41
2022/02/10 02:28:09;;;;;;;35.53;11.90;;;;;;;0.84;81.34;94404.34;5093117;28;20085;-40
2022/02/10 03:05:41;;;;;;;29.35;10.55;;;;;;;0.54;81.90;94429.88;5096053;28;20042;-41
2022/02/10 03:08:14;;;;;;;42.55;9.75;;;;;;;0.47;82.12;94430.19;5100642;28;20035;-40
2022/02/10 03:13:12;;;;;;;55.22;11.43;;;;;;;0.61;80.80;94422.13;5102989;28;20024;-39
2022/02/10 03:15:52;;;;;;;35.58;12.40;;;;;;;0.61;80.73;94430.25;5102906;28;20031;-41
2022/02/10 03:18:35;;;;;;;45.38;13.93;;;;;;;0.66;80.57;94424.22;5103878;28;20036;-39
2022/02/10 04:24:05;;;;;;;59.70;17.88;;;;;;;1.00;80.42;94425.66;5073297;28;20646;-41
2022/02/10 04:29:49;;;;;;;49.45;24.60;;;;;;;1.04;79.37;94414.63;5111427;28;20035;-42
2022/02/10 04:59:17;;;;;;;44.92;20.55;;;;;;;0.65;82.91;94425.41;5087523;28;20036;-41
2022/02/10 05:21:10;;;;;;;60.50;16.23;;;;;;;0.83;82.04;94440.88;5110212;28;20024;-40
2022/02/10 05:24:13;;;;;;;63.85;26.42;;;;;;;0.87;82.09;94438.72;5102257;28;20378;-40
2022/02/10 05:32:30;;;;;;;27.23;12.13;;;;;;;1.02;82.16;94447.69;5102458;28;20047;-40
2022/02/10 05:36:00;;;;;;;54.38;13.23;;;;;;;1.02;82.18;94450.41;5091976;28;20036;-40
2022/02/10 05:38:16;;;;;;;64.38;18.50;;;;;;;0.99;81.94;94450.59;5102227;28;20661;-39
2022/02/10 05:46:01;;;;;;;61.10;24.20;;;;;;;1.07;82.71;94451.75;5112026;28;20032;-41
2022/02/10 06:53:04;;;;;;;41.90;17.95;;;;;;;1.95;79.86;94469.06;5090533;28;20141;-42
2022/02/10 07:11:10;;;;;;;65.13;15.77;;;;;;;2.32;77.87;94472.91;5094024;28;20497;-41
2022/02/10 08:18:03;;;;;;;46.97;18.95;;;;;;;3.06;75.23;94464.13;5089156;28;20762;-37
2022/02/10 08:49:43;;;;;;;28.70;18.50;;;;;;;4.23;71.77;94482.63;5084107;28;20107;-40
2022/02/10 09:20:13;;;;;;;25.65;15.45;;;;;;;5.43;69.79;94498.94;5097173;28;20161;-39
2022/02/10 09:26:36;;;;;;;35.42;24.27;;;;;;;5.60;68.87;94497.78;5096395;28;20504;-41
2022/02/10 10:02:56;;;;;;;17.85;11.95;;;;;;;6.68;64.35;94446.97;5097452;28;20024;-40
2022/02/10 10:21:12;;;;;;;44.22;27.92;;;;;;;7.30;65.09;94423.63;5096470;28;20020;-41
2022/02/10 10:56:33;;;;;;;17.80;12.32;;;;;;;17.63;37.78;94368.75;5103838;28;20039;-41
2022/02/10 11:38:28;;;;;;;11.25;9.52;;;;;;;18.42;34.55;94336.72;5088593;28;20059;-41
2022/02/10 11:43:35;;;;;;;16.45;12.25;;;;;;;17.97;35.82;94324.06;5087581;28;20036;-41
2022/02/10 13:02:37;;;;;;;15.68;10.82;;;;;;;15.39;41.94;94265.06;5086594;28;20108;-41
2022/02/10 14:12:54;;;;;;;17.63;12.70;;;;;;;12.18;46.64;94217.25;5111115;28;20748;-41
2022/02/10 14:17:50;;;;;;;56.72;33.42;;;;;;;12.08;48.14;94221.78;5110916;28;20081;-40
2022/02/10 14:20:39;;;;;;;39.00;25.13;;;;;;;11.95;49.36;94197.66;5111005;28;20047;-40
2022/02/10 14:25:47;;;;;;;24.23;16.55;;;;;;;11.82;49.59;94200.50;5099470;28;20035;-41
2022/02/10 14:28:14;;;;;;;15.75;11.52;;;;;;;11.85;49.86;94215.25;5100483;28;20035;-41
2022/02/10 14:30:40;;;;;;;13.80;10.43;;;;;;;11.90;49.76;94220.69;5101915;28;20020;-41
2022/02/10 14:33:06;;;;;;;15.65;11.35;;;;;;;11.83;48.70;94209.53;5099776;28;20031;-41
2022/02/10 14:35:50;;;;;;;19.45;13.63;;;;;;;11.70;49.07;94204.78;5101180;28;20049;-40
2022/02/10 14:41:26;;;;;;;25.35;16.40;;;;;;;11.46;50.74;94199.53;5099238;28;20024;-41
2022/02/10 16:10:51;;;;;;;28.73;15.15;;;;;;;6.88;61.77;94183.94;5109511;28;20027;-43
2022/02/10 16:13:20;;;;;;;57.53;34.60;;;;;;;6.50;61.79;94198.56;5088267;28;20046;-40
2022/02/10 16:17:54;;;;;;;51.92;33.08;;;;;;;6.24;61.85;94200.16;5088037;28;20027;-40
2022/02/10 16:20:22;;;;;;;49.75;33.38;;;;;;;5.71;64.25;94199.19;5088774;28;20492;-41
2022/02/10 16:23:02;;;;;;;44.90;29.77;;;;;;;5.62;64.38;94204.16;5088484;28;20020;-41
2022/02/10 16:25:32;;;;;;;42.75;26.70;;;;;;;5.84;63.65;94199.47;5088042;28;20032;-40
2022/02/10 16:28:35;;;;;;;32.88;20.35;;;;;;;5.92;64.07;94205.19;5096596;28;20055;-40
2022/02/10 16:30:50;;;;;;;21.95;13.55;;;;;;;5.92;63.44;94210.66;5106146;28;20036;-40
2022/02/10 16:33:16;;;;;;;42.65;26.75;;;;;;;5.53;63.82;94212.63;5108057;28;20019;-40
2022/02/10 16:35:42;;;;;;;38.35;25.83;;;;;;;5.61;64.76;94219.84;5096915;28;20051;-40
2022/02/10 16:38:09;;;;;;;30.63;20.77;;;;;;;5.55;64.58;94213.63;5107720;28;20051;-40
2022/02/10 16:40:35;;;;;;;31.90;19.77;;;;;;;5.37;63.63;94214.13;5108567;28;20234;-41
2022/02/10 16:43:01;;;;;;;27.58;18.73;;;;;;;5.28;63.76;94219.84;5107841;28;20024;-40
2022/02/10 16:45:27;;;;;;;23.40;15.00;;;;;;;4.99;64.17;94215.56;5108338;28;20131;-40
2022/02/10 16:47:53;;;;;;;22.90;13.68;;;;;;;4.56;65.43;94205.97;5108521;28;20493;-40
2022/02/10 16:50:20;;;;;;;19.42;12.68;;;;;;;4.68;66.20;94228.66;5108599;28;20028;-40
2022/02/10 16:52:50;;;;;;;22.02;13.02;;;;;;;4.70;65.85;94221.41;5107878;28;20512;-40
2022/02/10 17:14:06;;;;;;;22.67;12.70;;;;;;;3.88;67.53;94211.56;5088136;28;20062;-40
2022/02/10 17:25:23;;;;;;;104.43;46.20;;;;;;;3.76;66.97;94220.91;5108555;28;20027;-40
2022/02/10 17:27:54;;;;;;;77.88;38.35;;;;;;;3.34;67.84;94224.31;5108166;28;20585;-40
2022/02/10 17:53:51;;;;;;;49.42;22.85;;;;;;;2.45;70.84;94227.34;5088126;28;20020;-40
2022/02/10 17:56:16;;;;;;;66.15;32.40;;;;;;;2.62;71.42;94220.84;5102217;28;20032;-40
2022/02/10 17:58:42;;;;;;;76.38;31.30;;;;;;;2.60;72.30;94231.47;5108121;28;20512;-40
2022/02/10 18:01:09;;;;;;;69.28;31.40;;;;;;;2.54;70.59;94224.47;5108414;28;20062;-40
2022/02/10 18:03:35;;;;;;;60.92;29.38;;;;;;;2.49;71.00;94228.63;5103672;28;20024;-40
2022/02/10 18:06:19;;;;;;;56.70;29.67;;;;;;;2.60;70.50;94217.84;5098599;28;20527;-40
2022/02/10 18:14:38;;;;;;;53.03;27.08;;;;;;;2.58;69.83;94222.31;5097528;28;20022;-42
2022/02/10 18:19:42;;;;;;;78.53;40.78;;;;;;;2.13;71.95;94226.44;5097537;28;20047;-43
2022/02/10 18:28:01;;;;;;;70.80;36.10;;;;;;;1.77;73.37;94219.53;5097255;28;20433;-43
2022/02/10 18:30:22;;;;;;;69.35;37.47;;;;;;;1.82;73.34;94221.56;5102023;28;20092;-42
2022/02/10 18:54:35;;;;;;;61.05;30.42;;;;;;;1.69;72.67;94221.13;5097603;28;20043;-43
2022/02/10 19:10:19;;;;;;;25.67;15.32;;;;;;;1.54;72.76;94236.72;5101176;28;20020;-43
2022/02/10 19:12:47;;;;;;;25.23;14.23;;;;;;;1.39;72.26;94234.00;5097856;28;20024;-43
2022/02/10 19:17:44;;;;;;;33.03;19.75;;;;;;;1.44;71.83;94230.66;5100490;28;20027;-43
2022/02/10 19:20:10;;;;;;;32.17;17.70;;;;;;;1.00;73.27;94221.75;5098643;28;20041;-43
2022/02/10 19:22:37;;;;;;;33.95;15.38;;;;;;;1.31;73.08;94237.59;5099238;28;20034;-43
2022/02/10 19:25:05;;;;;;;27.90;16.92;;;;;;;1.36;72.24;94245.09;5100181;28;20023;-43
2022/02/10 19:27:31;;;;;;;24.60;15.68;;;;;;;1.30;72.57;94241.53;5098563;28;20032;-41
2022/02/10 19:29:58;;;;;;;35.85;16.77;;;;;;;1.44;72.03;94246.97;5097094;28;20106;-41
2022/02/10 19:32:27;;;;;;;30.05;17.08;;;;;;;1.41;71.64;94242.47;5097770;28;20047;-41
2022/02/10 19:34:55;;;;;;;30.23;18.08;;;;;;;1.22;71.95;94243.13;5097364;28;20062;-41
2022/02/10 19:37:22;;;;;;;39.20;22.50;;;;;;;1.36;72.33;94243.13;5097678;28;20026;-41
2022/02/10 19:39:53;;;;;;;33.90;20.20;;;;;;;1.18;72.80;94248.75;5094716;28;20015;-40
2022/02/10 19:42:18;;;;;;;29.80;20.17;;;;;;;1.30;71.50;94227.94;5096009;28;20103;-40
2022/02/10 19:44:44;;;;;;;43.10;25.95;;;;;;;1.38;71.59;94243.41;5095914;28;20023;-40
2022/02/10 19:47:09;;;;;;;42.83;26.83;;;;;;;1.37;71.48;94238.44;5097271;28;20156;-41
2022/02/10 19:49:37;;;;;;;43.15;25.15;;;;;;;1.13;71.90;94243.97;5097834;28;20035;-41
2022/02/10 19:52:04;;;;;;;28.98;16.30;;;;;;;1.23;71.81;94241.91;5102859;28;20412;-41
2022/02/10 19:54:34;;;;;;;28.58;18.13;;;;;;;1.21;71.37;94242.38;5100011;28;20015;-41
2022/02/10 19:57:00;;;;;;;33.22;20.33;;;;;;;1.28;71.61;94242.00;5097828;28;20030;-40
2022/02/10 19:59:29;;;;;;;42.97;26.70;;;;;;;1.37;71.26;94232.97;5107841;27;20027;-40
2022/02/10 20:01:55;;;;;;;;;;;;;;;1.27;71.66;94231.59;5089468;28;20081;-41
2022/02/10 20:04:21;;;;;;;29.60;18.80;;;;;;;1.01;72.03;94239.56;5089138;28;19915;-41
2022/02/10 20:06:47;;;;;;;37.08;22.50;;;;;;;0.94;72.01;94234.50;5090405;28;20080;-41
2022/02/10 20:09:15;;;;;;;41.40;23.17;;;;;;;1.11;71.97;94242.94;5089281;28;20467;-41
2022/02/10 20:11:40;;;;;;;44.42;26.38;;;;;;;1.13;71.83;94246.69;5089271;28;20024;-40
2022/02/10 20:14:06;;;;;;;60.08;34.15;;;;;;;0.84;72.69;94254.81;5089124;28;20027;-41
2022/02/10 20:16:31;;;;;;;33.17;21.15;;;;;;;0.70;73.01;94255.53;5089200;28;20031;-40
2022/02/10 20:18:57;;;;;;;25.42;15.40;;;;;;;0.83;72.76;94252.56;5089843;28;20024;-41
2022/02/10 20:21:23;;;;;;;18.38;11.43;;;;;;;0.79;72.50;94255.47;5095538;28;20043;-41
2022/02/10 20:23:49;;;;;;;18.55;11.10;;;;;;;0.83;71.98;94258.75;5093809;28;20504;-41
2022/02/10 20:26:15;;;;;;;15.65;10.35;;;;;;;0.95;71.69;94249.59;5102029;28;20020;-41
2022/02/10 20:28:42;;;;;;;27.02;16.58;;;;;;;0.89;71.46;94259.59;5097482;28;20024;-41
2022/02/10 20:31:09;;;;;;;32.78;22.90;;;;;;;0.42;72.93;94262.38;5096830;28;20020;-41
2022/02/10 20:33:35;;;;;;;30.45;18.50;;;;;;;0.70;73.31;94260.97;5092049;28;20115;-40
2022/02/10 20:36:03;;;;;;;24.88;13.95;;;;;;;0.71;72.69;94246.91;5090745;28;20109;-39
2022/02/10 20:38:30;;;;;;;23.35;15.43;;;;;;;0.58;72.35;94256.56;5090856;28;20039;-40
2022/02/10 20:41:06;;;;;;;23.25;14.60;;;;;;;0.11;73.49;94257.31;5091060;28;20047;-40
2022/02/10 20:43:31;;;;;;;23.77;14.05;;;;;;;0.36;74.00;94261.53;5092822;28;20017;-39
2022/02/10 20:46:01;;;;;;;47.42;27.25;;;;;;;0.47;73.57;94248.19;5111068;28;20050;-41
2022/02/10 20:48:30;;;;;;;59.17;32.20;;;;;;;0.20;74.41;94246.41;5109866;28;20068;-41
2022/02/10 20:50:57;;;;;;;63.92;36.40;;;;;;;0.48;73.63;94236.84;5090999;28;20081;-41
2022/02/10 20:53:26;;;;;;;64.60;37.30;;;;;;;0.58;72.97;94229.38;5090518;28;20031;-40
2022/02/10 20:55:56;;;;;;;73.10;38.78;;;;;;;0.69;73.29;94224.16;5090526;28;20054;-41
2022/02/10 20:58:24;;;;;;;69.50;38.78;;;;;;;0.68;72.73;94225.34;5091425;28;20417;-40
2022/02/10 21:00:51;;;;;;;74.57;42.17;;;;;;;0.40;72.31;94196.91;5097492;28;20023;-41
2022/02/10 21:03:19;;;;;;;65.85;37.42;;;;;;;0.37;72.95;94189.72;5110654;28;20055;-41
2022/02/10 21:05:46;;;;;;;55.13;31.95;;;;;;;0.46;72.62;94227.66;5110753;28;20030;-39
2022/02/10 21:08:19;;;;;;;38.00;22.48;;;;;;;0.24;72.44;94225.25;5110649;28;20066;-42
2022/02/10 21:10:44;;;;;;;29.23;16.60;;;;;;;-0.05;73.74;94222.44;5110968;28;20024;-40
2022/02/10 21:13:12;;;;;;;25.60;16.40;;;;;;;0.04;73.46;94221.63;5110906;28;20031;-40
2022/02/10 21:15:42;;;;;;;23.45;14.55;;;;;;;-0.09;74.20;94214.44;5110874;28;20080;-39
2022/02/10 21:18:08;;;;;;;23.33;13.95;;;;;;;-0.03;73.66;94215.34;5110954;28;20046;-40
2022/02/10 21:20:36;;;;;;;21.05;13.02;;;;;;;0.00;73.76;94221.81;5110924;28;20030;-41
2022/02/10 21:23:27;;;;;;;30.83;17.80;;;;;;;-0.04;73.26;94215.78;5104734;28;20405;-41
2022/02/10 21:25:50;;;;;;;21.77;14.50;;;;;;;0.13;73.32;94211.44;5089958;28;20093;-42
2022/02/10 21:30:43;;;;;;;18.40;11.43;;;;;;;0.03;73.36;94201.88;5090369;28;20054;-40
2022/02/10 21:33:16;;;;;;;22.75;14.40;;;;;;;0.00;73.96;94200.81;5089983;28;20023;-41
2022/02/10 21:38:27;;;;;;;50.58;26.92;;;;;;;0.33;73.37;94198.03;5090100;28;20105;-41
2022/02/10 22:08:30;;;;;;;24.23;12.30;;;;;;;-0.47;73.61;94184.50;5114496;28;20035;-40
2022/02/10 22:10:45;;;;;;;27.70;15.25;;;;;;;-0.20;72.19;94181.66;5113995;28;20032;-38
2022/02/10 22:18:48;;;;;;;55.28;22.23;;;;;;;-0.74;74.18;94165.66;5114183;28;20050;-38
2022/02/10 22:21:33;;;;;;;36.47;21.17;;;;;;;-0.81;75.39;94155.16;5113786;28;20114;-37
2022/02/10 22:24:00;;;;;;;45.63;25.17;;;;;;;-0.77;74.77;94155.72;5113993;28;20032;-37
2022/02/10 22:26:29;;;;;;;61.47;28.67;;;;;;;-0.75;74.91;94145.19;5114139;28;20055;-38
2022/02/10 22:36:58;;;;;;;75.60;39.53;;;;;;;-0.39;73.15;94138.81;5111671;28;20050;-34
2022/02/10 22:39:24;;;;;;;69.95;36.42;;;;;;;-0.41;72.97;94150.13;5113290;28;20055;-35
2022/02/10 22:41:50;;;;;;;57.25;29.38;;;;;;;-0.73;73.31;94140.03;5113388;28;20092;-35
2022/02/10 22:44:15;;;;;;;46.42;22.02;;;;;;;-0.89;73.77;94140.44;5113335;27;20028;-36
2022/02/10 22:46:41;;;;;;;22.30;12.80;;;;;;;-0.85;73.05;94135.59;5113400;28;20115;-33
2022/02/10 22:49:07;;;;;;;29.35;16.50;;;;;;;-1.20;73.80;94131.81;5113691;28;20117;-35
2022/02/10 22:51:34;;;;;;;29.00;15.75;;;;;;;-1.07;73.93;94129.66;5113573;28;20028;-37
2022/02/10 22:54:01;;;;;;;28.38;15.95;;;;;;;-0.97;74.31;94131.09;5113222;28;20497;-36
2022/02/10 22:56:28;;;;;;;26.80;14.82;;;;;;;-0.72;74.37;94129.97;5113257;28;20023;-36
2022/02/10 22:58:56;;;;;;;33.45;17.52;;;;;;;-0.70;74.14;94132.97;5113286;28;20046;-36
2022/02/10 23:01:22;;;;;;;52.40;26.75;;;;;;;-0.70;73.36;94131.00;5101992;28;20032;-35
2022/02/10 23:03:47;;;;;;;43.53;22.38;;;;;;;-0.81;73.59;94111.78;5111375;28;20033;-33
2022/02/10 23:06:14;;;;;;;51.45;28.58;;;;;;;-0.78;72.99;94121.72;5113219;28;20035;-34
2022/02/10 23:08:40;;;;;;;88.57;45.65;;;;;;;-0.78;73.64;94124.41;5113016;28;20023;-36
2022/02/10 23:11:06;;;;;;;90.07;33.22;;;;;;;-0.92;73.98;94116.94;5113240;28;20050;-35
2022/02/10 23:13:34;;;;;;;67.65;29.95;;;;;;;-1.00;75.17;94104.94;5112777;28;20031;-33
2022/02/10 23:16:06;;;;;;;58.50;26.83;;;;;;;-1.20;76.17;94110.88;5111284;28;20024;-34
2022/02/10 23:18:34;;;;;;;39.63;21.70;;;;;;;-1.00;75.62;94121.97;5112776;28;20027;-38
2022/02/10 23:21:02;;;;;;;50.13;22.35;;;;;;;-0.96;73.60;94119.06;5113074;28;20058;-39
2022/02/10 23:23:30;;;;;;;50.90;22.75;;;;;;;-1.00;73.80;94127.38;5112823;28;20683;-38
2022/02/10 23:25:57;;;;;;;69.00;30.02;;;;;;;-0.99;74.18;94115.31;5112665;28;20035;-40
2022/02/10 23:28:28;;;;;;;58.40;27.50;;;;;;;-1.10;74.50;94120.47;5112779;28;20055;-36
2022/02/10 23:30:55;;;;;;;51.28;25.25;;;;;;;-0.96;73.79;94110.94;5112896;28;20420;-38
2022/02/10 23:33:26;;;;;;;83.03;38.47;;;;;;;-1.38;75.41;94110.19;5111277;28;20023;-39
2022/02/10 23:38:37;;;;;;;55.92;31.13;;;;;;;-1.47;75.52;94099.41;5112452;28;20055;-38
2022/02/10 23:41:44;;;;;;;42.92;22.48;;;;;;;-1.31;74.21;94097.06;5112282;28;20035;-35
2022/02/10 23:43:55;;;;;;;39.45;19.20;;;;;;;-1.46;75.81;94098.16;5112138;28;20028;-35
2022/02/10 23:46:21;;;;;;;41.38;19.67;;;;;;;-1.46;75.71;94100.88;5112458;28;20031;-39
2022/02/10 23:48:48;;;;;;;34.88;17.50;;;;;;;-1.56;75.86;94098.19;5112417;28;20024;-35
2022/02/10 23:51:13;;;;;;;37.13;18.23;;;;;;;-1.26;75.16;94095.72;5112354;28;20059;-37
2022/02/10 23:53:39;;;;;;;40.95;17.75;;;;;;;-1.19;74.72;94095.38;5112348;28;20054;-36
2022/02/10 23:56:10;;;;;;;30.83;14.68;;;;;;;-1.18;74.61;94096.88;5112389;28;20095;-37
